Time;durP1;ratioP1;P1;durP2;ratioP2;P2;SDS_P1;SDS_P2;PMS_P1;PMS_P2;Temp;Humidity;BMP_temperature;BMP_pressure;BME280_temperature;BME280_humidity;BME280_pressure;Samples;Min_cycle;Max_cycle;Signal;HPM_P1;HPM_P2
2023/11/06 00:01:47;;;;;;;3.67;1.97;;;;;;;;;;5017290;28;20220;-69
2023/11/06 00:04:15;;;;;;;4.30;1.53;;;;;;;;;;5017338;28;20208;-69
2023/11/06 00:06:43;;;;;;;3.33;2.23;;;;;;;;;;5022367;28;20204;-68
2023/11/06 00:09:12;;;;;;;2.77;1.90;;;;;;;;;;5021737;28;20563;-69
2023/11/06 00:11:40;;;;;;;3.10;1.80;;;;;;;;;;5017551;28;20263;-69
2023/11/06 00:14:10;;;;;;;5.07;1.80;;;;;;;;;;5017979;28;20239;-69
2023/11/06 00:16:38;;;;;;;4.27;2.10;;;;;;;;;;5026462;28;20702;-68
2023/11/06 00:19:07;;;;;;;3.80;2.40;;;;;;;;;;5017703;28;20204;-69
2023/11/06 00:21:36;;;;;;;2.73;1.90;;;;;;;;;;5017608;28;20654;-69
2023/11/06 00:24:05;;;;;;;3.47;2.20;;;;;;;;;;5018249;28;20281;-69
2023/11/06 00:26:33;;;;;;;5.77;2.50;;;;;;;;;;5017627;28;20575;-68
2023/11/06 00:29:02;;;;;;;3.97;2.53;;;;;;;;;;5021916;28;20199;-68
2023/11/06 00:31:37;;;;;;;1.90;1.70;;;;;;;;;;5026202;28;20228;-69
2023/11/06 00:34:05;;;;;;;4.63;2.50;;;;;;;;;;5017168;28;20200;-68
2023/11/06 00:36:34;;;;;;;8.60;3.57;;;;;;;;;;5032212;28;20234;-68
2023/11/06 00:39:02;;;;;;;4.47;2.60;;;;;;;;;;5017852;28;20204;-68
2023/11/06 00:41:30;;;;;;;4.57;2.67;;;;;;;;;;5023177;28;20251;-68
2023/11/06 00:43:58;;;;;;;6.03;4.10;;;;;;;;;;5024486;28;20205;-68
2023/11/06 00:46:27;;;;;;;5.50;3.70;;;;;;;;;;5016929;28;20204;-69
2023/11/06 00:48:56;;;;;;;6.37;3.10;;;;;;;;;;5016842;28;20200;-68
2023/11/06 00:51:25;;;;;;;4.50;2.47;;;;;;;;;;5017059;28;20224;-69
2023/11/06 00:53:53;;;;;;;4.37;2.70;;;;;;;;;;5016924;28;20201;-68
2023/11/06 00:56:22;;;;;;;7.43;3.53;;;;;;;;;;5022366;28;20356;-68
2023/11/06 00:58:51;;;;;;;12.40;6.40;;;;;;;;;;5017626;28;20216;-68
2023/11/06 01:01:19;;;;;;;6.80;3.20;;;;;;;;;;5023597;28;20220;-68
2023/11/06 01:03:47;;;;;;;6.37;3.47;;;;;;;;;;5024181;28;20291;-68
2023/11/06 01:06:17;;;;;;;5.33;3.30;;;;;;;;;;5030404;28;20581;-68
2023/11/06 01:08:45;;;;;;;6.60;3.53;;;;;;;;;;5036304;28;20292;-68
2023/11/06 01:11:13;;;;;;;9.50;4.97;;;;;;;;;;5020384;28;20307;-68
2023/11/06 01:13:42;;;;;;;9.33;5.07;;;;;;;;;;5019602;28;20208;-68
2023/11/06 01:16:10;;;;;;;2.47;2.13;;;;;;;;;;5024442;28;20204;-68
2023/11/06 01:18:38;;;;;;;6.10;2.03;;;;;;;;;;5019970;28;20230;-69
2023/11/06 01:21:07;;;;;;;2.57;1.40;;;;;;;;;;5020098;28;20591;-69
2023/11/06 01:23:37;;;;;;;3.67;2.20;;;;;;;;;;5020210;28;20200;-69
2023/11/06 01:26:05;;;;;;;5.40;2.20;;;;;;;;;;5020397;28;20283;-69
2023/11/06 01:28:34;;;;;;;5.00;2.00;;;;;;;;;;5033437;28;20211;-69
2023/11/06 01:31:03;;;;;;;3.53;1.70;;;;;;;;;;5019722;28;20222;-68
2023/11/06 01:33:31;;;;;;;3.50;1.80;;;;;;;;;;5019869;28;20209;-68
2023/11/06 01:36:00;;;;;;;4.63;1.87;;;;;;;;;;5019450;28;20240;-69
2023/11/06 01:38:28;;;;;;;5.97;2.50;;;;;;;;;;5030279;28;20238;-68
2023/11/06 01:40:58;;;;;;;2.97;1.93;;;;;;;;;;5035705;28;20200;-68
2023/11/06 01:43:27;;;;;;;6.27;1.93;;;;;;;;;;5024736;28;20200;-68
2023/11/06 01:45:55;;;;;;;2.30;1.60;;;;;;;;;;5019110;28;20738;-68
2023/11/06 01:48:24;;;;;;;1.60;1.20;;;;;;;;;;5020282;28;20236;-68
2023/11/06 01:50:53;;;;;;;4.97;2.00;;;;;;;;;;5019732;28;20663;-68
2023/11/06 01:53:22;;;;;;;3.13;1.50;;;;;;;;;;5019732;28;20580;-68
2023/11/06 01:55:51;;;;;;;3.30;1.57;;;;;;;;;;5029624;28;20204;-69
2023/11/06 01:58:22;;;;;;;3.87;1.63;;;;;;;;;;5040187;28;20290;-69
2023/11/06 02:00:51;;;;;;;4.20;2.10;;;;;;;;;;5037345;28;20207;-68
2023/11/06 02:03:19;;;;;;;4.07;1.70;;;;;;;;;;5019542;28;20200;-68
2023/11/06 02:05:48;;;;;;;4.17;2.00;;;;;;;;;;5019805;28;20214;-68
2023/11/06 02:08:17;;;;;;;2.80;1.50;;;;;;;;;;5022128;28;20644;-68
2023/11/06 02:10:47;;;;;;;6.20;1.67;;;;;;;;;;5029751;28;20213;-68
2023/11/06 02:13:17;;;;;;;4.30;1.40;;;;;;;;;;5019222;28;20212;-69
2023/11/06 02:15:47;;;;;;;2.13;1.37;;;;;;;;;;5027737;28;20246;-68
2023/11/06 02:18:15;;;;;;;3.33;1.50;;;;;;;;;;5020078;28;20582;-68
2023/11/06 02:20:43;;;;;;;4.03;1.40;;;;;;;;;;5035299;28;20291;-68
2023/11/06 02:23:13;;;;;;;3.30;1.60;;;;;;;;;;5033556;28;20230;-69
2023/11/06 02:25:41;;;;;;;4.10;1.57;;;;;;;;;;5019432;28;20726;-69
2023/11/06 02:28:10;;;;;;;3.60;1.30;;;;;;;;;;5019935;28;20212;-68
2023/11/06 02:30:38;;;;;;;5.63;1.50;;;;;;;;;;5035089;28;20622;-69
2023/11/06 02:33:07;;;;;;;2.07;1.37;;;;;;;;;;5030398;28;20694;-68
2023/11/06 02:35:36;;;;;;;5.17;1.67;;;;;;;;;;5018637;28;20282;-68
2023/11/06 02:38:05;;;;;;;2.63;1.50;;;;;;;;;;5019063;28;20232;-68
2023/11/06 02:40:34;;;;;;;4.43;1.60;;;;;;;;;;5029716;28;20234;-68
2023/11/06 02:43:03;;;;;;;2.07;1.23;;;;;;;;;;5030718;28;20251;-68
2023/11/06 02:45:31;;;;;;;2.70;1.60;;;;;;;;;;5019209;28;20206;-68
2023/11/06 02:47:59;;;;;;;4.80;1.40;;;;;;;;;;5018088;28;20212;-68
2023/11/06 02:50:28;;;;;;;2.40;1.20;;;;;;;;;;5018272;28;20266;-68
2023/11/06 02:52:56;;;;;;;2.47;1.50;;;;;;;;;;5018603;28;20282;-68
2023/11/06 02:55:25;;;;;;;3.43;1.33;;;;;;;;;;5024376;28;20206;-67
2023/11/06 02:57:55;;;;;;;3.77;1.60;;;;;;;;;;5031931;28;20211;-68
2023/11/06 03:00:23;;;;;;;3.90;1.53;;;;;;;;;;5018744;28;20208;-68
2023/11/06 03:02:53;;;;;;;5.67;1.63;;;;;;;;;;5017079;28;20220;-68
2023/11/06 03:05:22;;;;;;;2.50;1.20;;;;;;;;;;5018586;28;20251;-68
2023/11/06 03:07:50;;;;;;;2.43;1.37;;;;;;;;;;5018723;28;20208;-68
2023/11/06 03:10:19;;;;;;;2.50;1.50;;;;;;;;;;5018601;28;20200;-67
2023/11/06 03:12:47;;;;;;;3.83;1.60;;;;;;;;;;5018199;28;20311;-68
2023/11/06 03:15:17;;;;;;;2.57;1.27;;;;;;;;;;5022277;28;20208;-68
2023/11/06 03:17:47;;;;;;;1.67;1.10;;;;;;;;;;5018198;28;20291;-68
2023/11/06 03:20:15;;;;;;;2.43;1.33;;;;;;;;;;5017651;28;20208;-68
2023/11/06 03:22:43;;;;;;;2.60;1.20;;;;;;;;;;5017930;28;20228;-68
2023/11/06 03:25:11;;;;;;;4.40;1.60;;;;;;;;;;5017455;28;20272;-68
2023/11/06 03:27:40;;;;;;;2.37;1.60;;;;;;;;;;5018436;28;20766;-69
2023/11/06 03:30:20;;;;;;;1.20;1.10;;;;;;;;;;5018655;28;20291;-67
2023/11/06 03:32:53;;;;;;;1.90;1.30;;;;;;;;;;5029245;28;20259;-67
2023/11/06 03:35:22;;;;;;;3.70;1.93;;;;;;;;;;5017905;28;20340;-69
2023/11/06 03:37:50;;;;;;;1.87;1.30;;;;;;;;;;5025784;28;20208;-68
2023/11/06 03:40:18;;;;;;;1.83;1.30;;;;;;;;;;5025006;28;20204;-68
2023/11/06 03:42:46;;;;;;;2.80;1.03;;;;;;;;;;5025535;28;20252;-68
2023/11/06 03:45:15;;;;;;;1.23;1.10;;;;;;;;;;5026129;28;20200;-68
2023/11/06 03:47:43;;;;;;;2.47;1.40;;;;;;;;;;5025532;28;20556;-68
2023/11/06 03:50:14;;;;;;;3.10;1.33;;;;;;;;;;5025667;28;20204;-69
2023/11/06 03:52:43;;;;;;;1.67;1.30;;;;;;;;;;5027182;28;20674;-67
2023/11/06 03:55:13;;;;;;;3.70;1.60;;;;;;;;;;5024037;28;20224;-67
2023/11/06 03:57:42;;;;;;;1.70;1.37;;;;;;;;;;5026837;28;20207;-69
2023/11/06 04:00:11;;;;;;;2.80;1.30;;;;;;;;;;5025832;28;20246;-68
2023/11/06 04:02:39;;;;;;;2.33;1.30;;;;;;;;;;5023504;28;20220;-69
2023/11/06 04:05:08;;;;;;;3.03;1.50;;;;;;;;;;5026820;28;20583;-67
2023/11/06 04:07:38;;;;;;;2.73;1.40;;;;;;;;;;5028321;28;20204;-69
2023/11/06 04:10:07;;;;;;;4.77;1.50;;;;;;;;;;5025640;28;20200;-69
2023/11/06 04:12:36;;;;;;;4.10;1.30;;;;;;;;;;5027199;28;20227;-68
2023/11/06 04:15:05;;;;;;;3.23;1.40;;;;;;;;;;5025859;28;20627;-68
2023/11/06 04:17:34;;;;;;;3.20;1.53;;;;;;;;;;5017388;28;20202;-69
2023/11/06 04:20:02;;;;;;;1.37;1.23;;;;;;;;;;5017986;28;20215;-69
2023/11/06 04:22:30;;;;;;;1.93;1.50;;;;;;;;;;5017530;28;20220;-69
2023/11/06 04:25:00;;;;;;;3.83;1.27;;;;;;;;;;5017711;28;20208;-69
2023/11/06 04:27:28;;;;;;;1.43;0.90;;;;;;;;;;5017593;28;20208;-69
2023/11/06 04:29:57;;;;;;;1.73;1.40;;;;;;;;;;5017432;28;20204;-69
2023/11/06 04:32:28;;;;;;;2.23;1.30;;;;;;;;;;5016389;28;20245;-69
2023/11/06 04:34:56;;;;;;;3.53;1.50;;;;;;;;;;5018385;28;20204;-68
2023/11/06 04:37:24;;;;;;;2.30;1.20;;;;;;;;;;5001825;28;20598;-68
2023/11/06 04:39:53;;;;;;;1.43;1.13;;;;;;;;;;5009937;28;20726;-68
2023/11/06 04:42:22;;;;;;;3.00;1.13;;;;;;;;;;5005415;28;20234;-68
2023/11/06 04:44:51;;;;;;;4.70;1.20;;;;;;;;;;5001346;28;20213;-69
2023/11/06 04:47:19;;;;;;;1.03;1.03;;;;;;;;;;5001232;28;20293;-68
2023/11/06 04:49:48;;;;;;;2.57;1.00;;;;;;;;;;5001306;28;20215;-68
2023/11/06 04:52:16;;;;;;;2.10;1.30;;;;;;;;;;5000096;28;20232;-68
2023/11/06 04:54:44;;;;;;;2.53;1.10;;;;;;;;;;5001313;28;20209;-68
2023/11/06 04:57:13;;;;;;;1.03;0.90;;;;;;;;;;5002423;28;20727;-68
2023/11/06 04:59:44;;;;;;;1.30;1.00;;;;;;;;;;5001674;28;20292;-69
2023/11/06 05:02:12;;;;;;;1.97;0.80;;;;;;;;;;5004538;28;20311;-69
2023/11/06 05:04:43;;;;;;;1.67;0.90;;;;;;;;;;5001297;28;20267;-69
2023/11/06 05:07:12;;;;;;;1.23;0.90;;;;;;;;;;5001288;28;20245;-69
2023/11/06 05:09:42;;;;;;;3.77;0.90;;;;;;;;;;5004823;28;20276;-68
2023/11/06 05:12:11;;;;;;;1.83;1.23;;;;;;;;;;5000161;28;20252;-69
2023/11/06 05:14:39;;;;;;;2.13;0.93;;;;;;;;;;5000616;28;20279;-69
2023/11/06 05:17:10;;;;;;;2.33;0.80;;;;;;;;;;5012734;28;20232;-68
2023/11/06 05:19:41;;;;;;;1.57;0.80;;;;;;;;;;5001262;28;20209;-69
2023/11/06 05:22:10;;;;;;;3.90;1.07;;;;;;;;;;4998722;28;20255;-69
2023/11/06 05:24:44;;;;;;;1.13;1.03;;;;;;;;;;4997024;28;20231;-69
2023/11/06 05:27:13;;;;;;;1.03;1.00;;;;;;;;;;5000361;28;20208;-69
2023/11/06 05:29:41;;;;;;;4.23;1.07;;;;;;;;;;5005411;28;20220;-69
2023/11/06 05:32:11;;;;;;;2.83;1.03;;;;;;;;;;5000095;28;20248;-69
2023/11/06 05:34:40;;;;;;;3.90;1.03;;;;;;;;;;4999842;28;20721;-68
2023/11/06 05:37:09;;;;;;;1.43;0.90;;;;;;;;;;5024894;28;20236;-68
2023/11/06 05:39:39;;;;;;;2.30;1.00;;;;;;;;;;5020809;28;20215;-69
2023/11/06 05:42:07;;;;;;;1.57;0.90;;;;;;;;;;5031675;28;20250;-69
2023/11/06 05:44:38;;;;;;;1.43;0.90;;;;;;;;;;5019546;28;20283;-69
2023/11/06 05:47:07;;;;;;;0.90;0.90;;;;;;;;;;5019094;28;20236;-69
2023/11/06 05:49:38;;;;;;;2.10;1.00;;;;;;;;;;5022658;28;20272;-69
2023/11/06 05:52:06;;;;;;;2.80;1.10;;;;;;;;;;5020342;28;20289;-68
2023/11/06 05:54:34;;;;;;;2.70;0.80;;;;;;;;;;5020126;28;20758;-69
2023/11/06 05:57:02;;;;;;;3.03;0.93;;;;;;;;;;5027207;28;20203;-68
2023/11/06 05:59:31;;;;;;;1.93;0.90;;;;;;;;;;5039845;28;20573;-68
2023/11/06 06:01:59;;;;;;;5.30;1.10;;;;;;;;;;5039782;28;20231;-69
2023/11/06 06:04:30;;;;;;;2.63;0.90;;;;;;;;;;5032229;28;20327;-68
2023/11/06 06:07:00;;;;;;;0.80;0.80;;;;;;;;;;5020175;28;20211;-68
2023/11/06 06:09:28;;;;;;;4.23;2.77;;;;;;;;;;5023784;28;20208;-68
2023/11/06 06:11:57;;;;;;;3.47;1.43;;;;;;;;;;5039857;28;20224;-67
2023/11/06 06:14:26;;;;;;;3.57;1.23;;;;;;;;;;5039376;28;20286;-67
2023/11/06 06:16:54;;;;;;;1.23;1.13;;;;;;;;;;5020098;28;20216;-68
2023/11/06 06:19:23;;;;;;;4.63;1.17;;;;;;;;;;5019531;28;20643;-67
2023/11/06 06:21:51;;;;;;;4.97;1.30;;;;;;;;;;5019714;28;20315;-67
2023/11/06 06:24:22;;;;;;;2.30;1.10;;;;;;;;;;5019539;28;20551;-68
2023/11/06 06:26:50;;;;;;;1.97;0.93;;;;;;;;;;5019793;28;20209;-67
2023/11/06 06:29:18;;;;;;;1.23;1.10;;;;;;;;;;5019693;28;20215;-67
2023/11/06 06:31:48;;;;;;;1.50;1.10;;;;;;;;;;5019184;28;20290;-68
2023/11/06 06:34:17;;;;;;;1.37;0.80;;;;;;;;;;5019583;28;20220;-67
2023/11/06 06:36:45;;;;;;;2.77;0.73;;;;;;;;;;5019079;28;20236;-67
2023/11/06 06:39:13;;;;;;;3.33;1.00;;;;;;;;;;5032793;28;20290;-67
2023/11/06 06:41:43;;;;;;;2.43;0.90;;;;;;;;;;5030015;28;20246;-66
2023/11/06 06:44:11;;;;;;;9.80;1.27;;;;;;;;;;5019107;28;20727;-66
2023/11/06 06:46:40;;;;;;;3.87;1.53;;;;;;;;;;5018997;28;20265;-66
2023/11/06 06:49:08;;;;;;;1.47;1.07;;;;;;;;;;5029262;28;20735;-68
2023/11/06 06:51:36;;;;;;;2.83;1.20;;;;;;;;;;5037581;28;20223;-67
2023/11/06 06:54:04;;;;;;;3.40;1.00;;;;;;;;;;5029518;28;20350;-66
2023/11/06 06:56:33;;;;;;;1.03;0.80;;;;;;;;;;5018631;28;20219;-67
2023/11/06 06:59:06;;;;;;;1.37;1.10;;;;;;;;;;5021493;28;20201;-65
2023/11/06 07:01:35;;;;;;;1.50;1.03;;;;;;;;;;5025108;28;20223;-65
2023/11/06 07:04:04;;;;;;;3.13;0.80;;;;;;;;;;5024615;28;20675;-66
2023/11/06 07:06:35;;;;;;;2.63;0.90;;;;;;;;;;5018715;28;20290;-66
2023/11/06 07:09:04;;;;;;;3.00;1.17;;;;;;;;;;5027118;28;20259;-65
2023/11/06 07:11:33;;;;;;;1.77;0.80;;;;;;;;;;5028452;28;20651;-66
2023/11/06 07:14:02;;;;;;;2.07;0.90;;;;;;;;;;5027702;28;20216;-67
2023/11/06 07:16:32;;;;;;;2.13;0.80;;;;;;;;;;5027713;28;20200;-66
2023/11/06 07:19:00;;;;;;;1.60;0.90;;;;;;;;;;5028936;28;20282;-66
2023/11/06 07:21:29;;;;;;;1.87;1.10;;;;;;;;;;5028155;28;20287;-67
2023/11/06 07:24:00;;;;;;;3.73;1.10;;;;;;;;;;5027938;28;20200;-66
2023/11/06 07:26:31;;;;;;;3.17;1.00;;;;;;;;;;5028281;28;20264;-66
2023/11/06 07:28:59;;;;;;;1.30;0.90;;;;;;;;;;5027190;28;20226;-65
2023/11/06 07:31:27;;;;;;;6.13;2.60;;;;;;;;;;5028644;28;20239;-66
2023/11/06 07:33:57;;;;;;;3.83;0.90;;;;;;;;;;5030694;28;20226;-64
2023/11/06 07:36:27;;;;;;;4.33;1.60;;;;;;;;;;5027961;28;20281;-64
2023/11/06 07:38:55;;;;;;;1.20;0.93;;;;;;;;;;5027388;28;20235;-65
2023/11/06 07:41:24;;;;;;;0.83;0.60;;;;;;;;;;5031724;28;20286;-64
2023/11/06 07:43:52;;;;;;;3.90;1.07;;;;;;;;;;5018077;28;20271;-64
2023/11/06 07:46:20;;;;;;;4.27;0.93;;;;;;;;;;5024183;28;20211;-63
2023/11/06 07:48:49;;;;;;;3.73;1.20;;;;;;;;;;5037622;28;20213;-64
2023/11/06 07:51:19;;;;;;;2.93;1.00;;;;;;;;;;5035796;28;20242;-64
2023/11/06 07:53:47;;;;;;;1.40;0.80;;;;;;;;;;5019867;28;20648;-65
2023/11/06 07:56:18;;;;;;;1.63;0.93;;;;;;;;;;5036738;28;20231;-65
2023/11/06 07:58:48;;;;;;;1.50;0.60;;;;;;;;;;5019111;28;20204;-64
2023/11/06 08:01:17;;;;;;;3.57;1.23;;;;;;;;;;5032882;28;20224;-64
2023/11/06 08:03:46;;;;;;;5.20;0.87;;;;;;;;;;5027368;28;20259;-64
2023/11/06 08:06:14;;;;;;;0.67;0.60;;;;;;;;;;5018105;28;20295;-65
2023/11/06 08:08:44;;;;;;;1.53;1.03;;;;;;;;;;5018079;28;20208;-66
2023/11/06 08:11:12;;;;;;;1.47;1.07;;;;;;;;;;5017340;28;20235;-63
2023/11/06 08:13:41;;;;;;;1.13;1.00;;;;;;;;;;5018253;28;20215;-63
2023/11/06 08:16:09;;;;;;;1.73;1.00;;;;;;;;;;5028389;28;20640;-63
2023/11/06 08:18:38;;;;;;;1.40;1.03;;;;;;;;;;5026515;28;20520;-63
2023/11/06 08:21:06;;;;;;;1.67;0.70;;;;;;;;;;5030308;28;20574;-65
2023/11/06 08:23:35;;;;;;;2.63;1.03;;;;;;;;;;5037968;28;20299;-63
2023/11/06 08:26:05;;;;;;;1.63;0.80;;;;;;;;;;5037593;28;20572;-63
2023/11/06 08:28:33;;;;;;;1.37;0.80;;;;;;;;;;5037814;28;20261;-63
2023/11/06 08:31:04;;;;;;;0.87;0.80;;;;;;;;;;5037427;28;20242;-65
2023/11/06 08:33:34;;;;;;;4.00;1.40;;;;;;;;;;5034487;28;20287;-63
2023/11/06 08:36:02;;;;;;;2.23;0.70;;;;;;;;;;5017541;28;20327;-65
2023/11/06 08:38:30;;;;;;;1.07;0.70;;;;;;;;;;5033574;28;20311;-63
2023/11/06 08:41:44;;;;;;;0.80;0.80;;;;;;;;;;5032915;28;20207;-63
2023/11/06 08:44:32;;;;;;;1.57;0.80;;;;;;;;;;5014972;28;20295;-64
2023/11/06 08:47:01;;;;;;;2.87;1.00;;;;;;;;;;5016754;28;20203;-64
2023/11/06 08:49:30;;;;;;;2.00;0.80;;;;;;;;;;5017287;28;20212;-63
2023/11/06 08:52:00;;;;;;;1.00;0.80;;;;;;;;;;5017580;28;20315;-63
2023/11/06 08:54:33;;;;;;;2.53;0.90;;;;;;;;;;5025861;28;20199;-63
2023/11/06 08:57:02;;;;;;;2.67;1.10;;;;;;;;;;5017383;28;20200;-63
2023/11/06 08:59:32;;;;;;;2.80;0.93;;;;;;;;;;5022184;28;20227;-63
2023/11/06 09:02:01;;;;;;;1.83;1.10;;;;;;;;;;5017074;28;20239;-63
2023/11/06 09:04:30;;;;;;;2.30;1.00;;;;;;;;;;5016622;28;20200;-63
2023/11/06 09:06:59;;;;;;;1.60;0.90;;;;;;;;;;5020397;28;20208;-63
2023/11/06 09:09:27;;;;;;;0.70;0.70;;;;;;;;;;5019892;28;20203;-65
2023/11/06 09:11:56;;;;;;;3.27;1.10;;;;;;;;;;5024406;28;20233;-64
2023/11/06 09:14:25;;;;;;;2.97;0.70;;;;;;;;;;5026656;28;20283;-64
2023/11/06 09:16:54;;;;;;;2.27;0.60;;;;;;;;;;5019920;28;20270;-64
2023/11/06 09:19:23;;;;;;;2.23;0.70;;;;;;;;;;5016941;28;20754;-64
2023/11/06 09:21:51;;;;;;;2.10;0.80;;;;;;;;;;5019415;28;20238;-64
2023/11/06 09:24:19;;;;;;;1.40;0.90;;;;;;;;;;5020489;28;20287;-65
2023/11/06 09:26:48;;;;;;;0.83;0.80;;;;;;;;;;5020209;28;20204;-64
2023/11/06 09:29:16;;;;;;;1.97;0.70;;;;;;;;;;5022298;28;20204;-64
2023/11/06 09:31:45;;;;;;;1.47;0.47;;;;;;;;;;5021689;28;20226;-64
2023/11/06 09:34:17;;;;;;;2.10;0.97;;;;;;;;;;5020350;28;20208;-64
2023/11/06 09:36:45;;;;;;;2.10;0.90;;;;;;;;;;5020112;28;20598;-64
2023/11/06 09:39:14;;;;;;;1.70;0.97;;;;;;;;;;5020446;28;20292;-63
2023/11/06 09:41:43;;;;;;;1.63;1.00;;;;;;;;;;5028412;28;20291;-66
2023/11/06 09:44:13;;;;;;;0.63;0.63;;;;;;;;;;5020598;28;20212;-65
2023/11/06 09:46:42;;;;;;;2.37;0.90;;;;;;;;;;5037562;28;20661;-64
2023/11/06 09:49:16;;;;;;;1.73;0.67;;;;;;;;;;5038907;28;20271;-65
2023/11/06 09:51:52;;;;;;;2.10;0.80;;;;;;;;;;5039947;28;20227;-65
2023/11/06 09:54:24;;;;;;;8.40;1.70;;;;;;;;;;5028896;28;20236;-66
2023/11/06 09:56:54;;;;;;;3.73;1.20;;;;;;;;;;5020222;28;20239;-65
2023/11/06 09:59:23;;;;;;;1.30;0.87;;;;;;;;;;5019981;28;20204;-65
2023/11/06 10:01:53;;;;;;;4.83;0.80;;;;;;;;;;5021999;28;20228;-64
2023/11/06 10:04:22;;;;;;;1.03;0.73;;;;;;;;;;5039720;28;20207;-64
2023/11/06 10:07:02;;;;;;;3.07;1.00;;;;;;;;;;5026638;28;20250;-64
2023/11/06 10:09:31;;;;;;;2.50;0.80;;;;;;;;;;5025815;28;20234;-64
2023/11/06 10:12:14;;;;;;;2.17;0.83;;;;;;;;;;5030128;28;20722;-63
2023/11/06 10:14:42;;;;;;;1.10;1.00;;;;;;;;;;5020833;28;20295;-64
2023/11/06 10:17:11;;;;;;;3.47;1.20;;;;;;;;;;5026580;28;20282;-64
2023/11/06 10:19:39;;;;;;;0.80;0.80;;;;;;;;;;5028512;28;20642;-63
2023/11/06 10:22:15;;;;;;;1.13;0.77;;;;;;;;;;5039489;28;20263;-64
2023/11/06 10:24:50;;;;;;;3.17;0.97;;;;;;;;;;5031042;28;20208;-63
2023/11/06 10:27:23;;;;;;;1.40;1.00;;;;;;;;;;5025827;28;20537;-64
2023/11/06 10:29:58;;;;;;;1.60;0.90;;;;;;;;;;5028445;28;20207;-63
2023/11/06 10:32:28;;;;;;;3.30;0.83;;;;;;;;;;5019849;28;20227;-65
2023/11/06 10:35:00;;;;;;;43.63;8.57;;;;;;;;;;5019302;28;20630;-65
2023/11/06 10:37:31;;;;;;;36.00;6.70;;;;;;;;;;5034762;28;20238;-64
2023/11/06 10:39:59;;;;;;;2.43;1.40;;;;;;;;;;5038308;28;20211;-64
2023/11/06 10:42:27;;;;;;;6.63;1.00;;;;;;;;;;5026577;28;20232;-63
2023/11/06 10:44:57;;;;;;;2.60;1.10;;;;;;;;;;5024889;28;20204;-63
2023/11/06 10:47:27;;;;;;;1.47;0.70;;;;;;;;;;5027007;28;20283;-63
2023/11/06 10:50:00;;;;;;;0.90;0.77;;;;;;;;;;5025293;28;20267;-63
2023/11/06 10:52:32;;;;;;;2.60;1.03;;;;;;;;;;5038671;28;20237;-64
2023/11/06 10:55:02;;;;;;;2.17;0.73;;;;;;;;;;5018018;28;20211;-64
2023/11/06 10:57:34;;;;;;;5.17;1.13;;;;;;;;;;5018923;28;20266;-64
2023/11/06 11:00:07;;;;;;;1.33;0.80;;;;;;;;;;5018338;28;20205;-64
2023/11/06 11:02:42;;;;;;;5.17;0.90;;;;;;;;;;5018744;28;20232;-66
2023/11/06 11:05:12;;;;;;;1.37;0.80;;;;;;;;;;5019239;28;20240;-65
2023/11/06 11:07:43;;;;;;;0.87;0.70;;;;;;;;;;5019077;28;20283;-64
2023/11/06 11:10:13;;;;;;;2.10;1.00;;;;;;;;;;5031819;28;20204;-67
2023/11/06 11:12:42;;;;;;;1.30;0.80;;;;;;;;;;5018185;28;20220;-66
2023/11/06 11:15:12;;;;;;;1.33;0.70;;;;;;;;;;5023228;28;20212;-66
2023/11/06 11:17:55;;;;;;;1.30;0.70;;;;;;;;;;5019398;28;20247;-66
2023/11/06 11:20:24;;;;;;;0.93;0.70;;;;;;;;;;5014459;28;20633;-66
2023/11/06 11:23:07;;;;;;;1.17;0.80;;;;;;;;;;5019159;28;20615;-66
2023/11/06 11:25:55;;;;;;;1.70;0.90;;;;;;;;;;5016288;28;20208;-66
2023/11/06 11:28:25;;;;;;;1.13;0.80;;;;;;;;;;5018273;28;20287;-66
2023/11/06 11:30:57;;;;;;;1.63;1.10;;;;;;;;;;5017964;28;20208;-65
2023/11/06 11:33:43;;;;;;;3.20;1.17;;;;;;;;;;5018146;28;20710;-65
2023/11/06 11:36:27;;;;;;;4.43;1.10;;;;;;;;;;5017839;28;20236;-66
2023/11/06 11:38:56;;;;;;;1.43;1.10;;;;;;;;;;5018108;28;20215;-65
2023/11/06 11:41:25;;;;;;;2.00;1.20;;;;;;;;;;5018120;28;20584;-65
2023/11/06 11:44:05;;;;;;;0.90;0.80;;;;;;;;;;5017789;28;20208;-66
2023/11/06 11:47:00;;;;;;;0.97;0.90;;;;;;;;;;5017768;28;20214;-65
2023/11/06 11:49:38;;;;;;;3.83;0.80;;;;;;;;;;5018343;28;20246;-66
2023/11/06 11:52:07;;;;;;;2.33;0.70;;;;;;;;;;5017964;28;20238;-67
2023/11/06 11:54:37;;;;;;;2.43;1.13;;;;;;;;;;5018018;28;20550;-66
2023/11/06 11:57:08;;;;;;;1.80;0.80;;;;;;;;;;5022906;28;20282;-65
2023/11/06 11:59:40;;;;;;;0.60;0.60;;;;;;;;;;5032755;28;20654;-65
2023/11/06 12:02:09;;;;;;;1.77;0.90;;;;;;;;;;5024299;28;20274;-66
2023/11/06 12:04:37;;;;;;;1.60;0.80;;;;;;;;;;5017843;28;20671;-65
2023/11/06 12:07:06;;;;;;;2.63;0.93;;;;;;;;;;5017855;28;20667;-66
2023/11/06 12:09:46;;;;;;;2.43;0.90;;;;;;;;;;5018096;28;20298;-67
2023/11/06 12:12:20;;;;;;;1.03;0.70;;;;;;;;;;5017828;28;20231;-69
2023/11/06 12:14:48;;;;;;;1.50;0.50;;;;;;;;;;5019636;28;20244;-69
2023/11/06 12:17:27;;;;;;;1.20;0.80;;;;;;;;;;5024116;28;20228;-69
2023/11/06 12:19:55;;;;;;;0.70;0.50;;;;;;;;;;5037364;28;20249;-69
2023/11/06 12:22:24;;;;;;;0.87;0.50;;;;;;;;;;5037293;28;20765;-68
2023/11/06 12:24:53;;;;;;;0.60;0.60;;;;;;;;;;5037427;28;20686;-68
2023/11/06 12:27:31;;;;;;;1.43;0.67;;;;;;;;;;5037317;28;20700;-68
2023/11/06 12:30:00;;;;;;;0.70;0.50;;;;;;;;;;5036396;28;20674;-68
2023/11/06 12:32:29;;;;;;;0.60;0.60;;;;;;;;;;5022540;28;20254;-67
2023/11/06 12:35:09;;;;;;;2.97;0.63;;;;;;;;;;5033617;28;20214;-67
2023/11/06 12:37:50;;;;;;;1.40;1.30;;;;;;;;;;5017523;28;20228;-69
2023/11/06 12:40:18;;;;;;;1.53;0.50;;;;;;;;;;5017292;28;20208;-68
2023/11/06 12:42:50;;;;;;;1.23;0.60;;;;;;;;;;5026297;28;20283;-68
2023/11/06 12:45:25;;;;;;;0.40;0.40;;;;;;;;;;5017139;28;20591;-68
2023/11/06 12:47:53;;;;;;;0.60;0.60;;;;;;;;;;5017411;28;20208;-68
2023/11/06 12:50:23;;;;;;;1.27;0.70;;;;;;;;;;5017337;28;20667;-68
2023/11/06 12:52:51;;;;;;;0.97;0.50;;;;;;;;;;5017352;28;20714;-67
2023/11/06 12:55:19;;;;;;;0.50;0.50;;;;;;;;;;5023482;28;20235;-68
2023/11/06 12:57:50;;;;;;;1.73;0.80;;;;;;;;;;5040864;28;20314;-67
2023/11/06 13:00:26;;;;;;;0.77;0.60;;;;;;;;;;5041007;28;20208;-68
2023/11/06 13:02:56;;;;;;;2.50;0.63;;;;;;;;;;5018072;28;20227;-67
2023/11/06 13:05:26;;;;;;;0.43;0.43;;;;;;;;;;5021277;28;20295;-67
2023/11/06 13:07:54;;;;;;;0.60;0.50;;;;;;;;;;5020849;28;20259;-69
2023/11/06 13:10:23;;;;;;;0.93;0.80;;;;;;;;;;5032739;28;20278;-70
2023/11/06 13:12:52;;;;;;;1.63;0.50;;;;;;;;;;5021046;28;20263;-69
2023/11/06 13:15:21;;;;;;;0.83;0.60;;;;;;;;;;5027370;28;20286;-69
2023/11/06 13:17:51;;;;;;;1.13;0.30;;;;;;;;;;5026857;28;20698;-68
2023/11/06 13:20:29;;;;;;;0.20;0.20;;;;;;;;;;5040623;28;20218;-67
2023/11/06 13:22:58;;;;;;;0.70;0.40;;;;;;;;;;5040402;28;20756;-68
2023/11/06 13:25:27;;;;;;;0.20;0.20;;;;;;;;;;5039431;28;20195;-68
2023/11/06 13:27:57;;;;;;;0.30;0.30;;;;;;;;;;5039662;28;20200;-67
2023/11/06 13:30:26;;;;;;;0.77;0.30;;;;;;;;;;5019706;28;20228;-68
2023/11/06 13:32:54;;;;;;;0.57;0.40;;;;;;;;;;5020136;28;20228;-67
2023/11/06 13:35:22;;;;;;;0.43;0.40;;;;;;;;;;5031244;28;20292;-68
2023/11/06 13:37:52;;;;;;;1.20;0.27;;;;;;;;;;5020530;28;20224;-67
2023/11/06 13:40:29;;;;;;;1.73;0.50;;;;;;;;;;5020403;28;20215;-68
2023/11/06 13:42:59;;;;;;;1.63;0.60;;;;;;;;;;5029808;28;20771;-67
2023/11/06 13:45:28;;;;;;;0.60;0.43;;;;;;;;;;5025316;28;20287;-67
2023/11/06 13:48:03;;;;;;;0.50;0.50;;;;;;;;;;5039857;28;20231;-67
2023/11/06 13:50:43;;;;;;;1.13;0.63;;;;;;;;;;5039940;28;20614;-68
2023/11/06 13:53:14;;;;;;;3.83;0.50;;;;;;;;;;5020319;28;20207;-68
2023/11/06 13:55:48;;;;;;;1.67;0.83;;;;;;;;;;5029511;28;20299;-68
2023/11/06 13:58:38;;;;;;;1.83;0.70;;;;;;;;;;5039705;28;20230;-67
2023/11/06 14:01:10;;;;;;;2.10;0.60;;;;;;;;;;5025653;28;20228;-68
2023/11/06 14:03:42;;;;;;;1.03;0.60;;;;;;;;;;5020163;28;20209;-68
2023/11/06 14:06:16;;;;;;;2.77;0.43;;;;;;;;;;5020229;28;20259;-69
2023/11/06 14:08:46;;;;;;;0.40;0.40;;;;;;;;;;5019310;28;20207;-67
2023/11/06 14:11:15;;;;;;;2.87;0.53;;;;;;;;;;5019851;28;20726;-68
2023/11/06 14:13:45;;;;;;;0.60;0.27;;;;;;;;;;5019787;28;20208;-68
2023/11/06 14:16:18;;;;;;;1.20;0.50;;;;;;;;;;5028464;28;20205;-67
2023/11/06 14:18:50;;;;;;;1.40;0.30;;;;;;;;;;5020068;28;20235;-67
2023/11/06 14:21:18;;;;;;;0.67;0.30;;;;;;;;;;5019848;28;20260;-68
2023/11/06 14:23:46;;;;;;;0.30;0.30;;;;;;;;;;5022802;28;20547;-68
2023/11/06 14:26:16;;;;;;;1.43;0.83;;;;;;;;;;5019923;28;20220;-68
2023/11/06 14:28:45;;;;;;;0.43;0.43;;;;;;;;;;5020436;28;20255;-69
2023/11/06 14:31:14;;;;;;;0.50;0.50;;;;;;;;;;5039336;28;20265;-68
2023/11/06 14:33:43;;;;;;;1.47;0.70;;;;;;;;;;5037072;28;20200;-67
2023/11/06 14:36:12;;;;;;;0.60;0.60;;;;;;;;;;5036824;28;20267;-68
2023/11/06 14:38:41;;;;;;;1.00;0.50;;;;;;;;;;5030843;28;20287;-67
2023/11/06 14:41:11;;;;;;;0.67;0.60;;;;;;;;;;5026993;28;20215;-68
2023/11/06 14:43:39;;;;;;;1.10;0.50;;;;;;;;;;5021931;28;20652;-68
2023/11/06 14:46:10;;;;;;;0.33;0.30;;;;;;;;;;5023769;28;20746;-68
2023/11/06 14:48:38;;;;;;;0.47;0.43;;;;;;;;;;5037830;28;20192;-68
2023/11/06 14:51:18;;;;;;;0.67;0.53;;;;;;;;;;5031956;28;20231;-67
2023/11/06 14:53:46;;;;;;;1.13;0.53;;;;;;;;;;5020791;28;20302;-68
2023/11/06 14:56:15;;;;;;;0.87;0.40;;;;;;;;;;5027468;28;20631;-67
2023/11/06 14:58:44;;;;;;;0.30;0.30;;;;;;;;;;5019153;28;20314;-68
2023/11/06 15:01:14;;;;;;;0.40;0.30;;;;;;;;;;5021958;28;20307;-68